x

Canaveral 20 Nm East Of Cape Canaveral, Fl (41009) Wave Buoy

10:50am - Fri 19th Dec 2014 All times are EST. -5 hours from GMT.

  • Sig Wave height 1.6ft
  • Swell Direction
  • Peak Period 10s
  • Average Period 5s
  • Wind
    4mph, 7mph gusts
  • Sea Temp 76°f
  • Air Temp 68°f
  • Sea Pressure 1020.9mb
  • Canaveral 20 Nm East Of Cape Canaveral, Fl
  • Canaveral 20 Nm East Of Cape Canaveral, Fl

More Historic Weather Station data

Upgrade to MSW Pro to gain access to the past 30 days of data for over 8000 Wavebouys and Weather Stations around the globe.

Join Pro

Comparision Forecast

View Surf forecast
   
Fri 12/19 10:50am 1.6ft 10s 5s 4 7 mph 1020.9mb 76f 68f
10:20am  -   -   -  7 9 mph 1021.1mb 76f 68f
9:50am 1.6ft 10s 5s 7 9 mph 1021.2mb 76f 68f
9:20am  -   -   -  7 11 mph 1020.6mb 76f 67f
8:50am 1.6ft 10s 5s 9 11 mph 1020.4mb 76f 67f
8:20am  -   -   -  7 11 mph 1020mb 76f 67f
7:20am  -   -   -  4 9 mph 1019.2mb 76f 67f
6:50am 1.6ft 10s 5s 4 9 mph 1018.9mb 76f 66f
6:20am  -   -   -  9 11 mph 1018.7mb 76f 66f
5:50am 1.6ft 10s 5s 4 7 mph 1018.6mb 76f 66f
5:20am  -   -   -  7 11 mph 1018.8mb 76f 66f
4:50am 1.6ft 10s 5s 9 11 mph 1018.9mb 76f 66f
4:20am  -   -   -  7 11 mph 1018.7mb 76f 66f
3:50am 1.6ft 10s 4s 9 13 mph 1019.1mb 76f 66f
3:20am  -   -   -  11 13 mph 1019.2mb 76f 67f
2:50am 1.6ft 10s 4s 9 13 mph 1019.2mb 76f 66f
2:20am  -   -   -  9 11 mph 1019.3mb 76f 66f
1:50am 1.6ft 11s 5s 9 11 mph 1019.4mb 76f 66f
1:20am  -   -   -  9 13 mph 1019.6mb 76f 67f
12:50am 1.6ft 11s 5s 7 11 mph 1019.3mb 76f 67f
12:20am  -   -   -  7 11 mph 1019.7mb 76f 67f
Thu 12/18 11:50pm 1.6ft 10s 5s 9 11 mph 1020.1mb 76f 67f
11:20pm  -   -   -  7 11 mph 1020.4mb 76f 67f
10:50pm 1.6ft 10s 5s 4 9 mph 1020.3mb 76f 67f
10:20pm  -   -   -  4 7 mph 1020mb 76f 66f
9:50pm 1.6ft 10s 5s 7 9 mph 1020.1mb 76f 66f
9:20pm  -   -   -  7 9 mph 1019.8mb 76f 66f
8:50pm 1.6ft 10s 4s 4 9 mph 1019.9mb 76f 66f
8:20pm  -   -   -  7 9 mph 1019.8mb 76f 66f
7:50pm 1.6ft 10s 5s 7 9 mph 1019.8mb 76f 66f
7:20pm  -   -   -  4 9 mph 1019.8mb 76f 66f
6:50pm 1.6ft 10s 4s 9 13 mph 1019.9mb 76f 66f
6:20pm  -   -   -  9 11 mph 1019.5mb 76f 66f
5:50pm 1.6ft 11s 4s 9 13 mph 1019.5mb 76f 66f
5:20pm  -   -   -  9 13 mph 1019.3mb 76f 66f
4:50pm 1.6ft 10s 4s 9 11 mph 1019.1mb 76f 66f
4:20pm  -   -   -  9 13 mph 1019mb 76f 66f
3:50pm 1.6ft 10s 4s 11 16 mph 1019.1mb 76f 66f
3:20pm  -   -   -  9 11 mph 1019.3mb 76f 66f
2:50pm 1.6ft 10s 4s 9 13 mph 1019.2mb 76f 66f
2:20pm  -   -   -  11 16 mph 1019.3mb 76f 66f
1:50pm 1.6ft 10s 4s 11 18 mph 1019.5mb 76f 66f
1:20pm  -   -   -  11 16 mph 1020.1mb 76f 66f
12:50pm 1.6ft 10s 4s 13 18 mph 1020.5mb 76f 66f
12:20pm  -   -   -  9 13 mph 1021mb 75f 66f
11:50am 1.6ft 10s 4s 9 13 mph 1021.3mb 75f 66f
11:20am  -   -   -  9 13 mph 1021.6mb 75f 66f
10:50am 1.6ft 11s 4s 9 13 mph 1021.8mb 75f 65f
10:20am  -   -   -  7 11 mph 1021.9mb 75f 65f
9:50am 1.6ft 11s 5s 9 13 mph 1022mb 75f 65f
9:20am  -   -   -  9 11 mph 1021.8mb 75f 65f
8:50am 2ft 10s 5s 7 9 mph 1021.3mb 75f 65f
7:50am 2ft 10s 4s 9 11 mph 1020.4mb 75f 65f
7:20am  -   -   -  11 13 mph 1020.3mb 75f 64f
6:50am 1.6ft 10s 4s 9 11 mph 1020mb 75f 64f
6:20am  -   -   -  9 11 mph 1019.8mb 75f 64f
5:50am 2ft 11s 4s 9 11 mph 1019.7mb 75f 64f
5:20am  -   -   -  11 13 mph 1019.6mb 75f 64f
4:50am 2ft 11s 4s 11 13 mph 1019.6mb 75f 64f
4:20am  -   -   -  13 16 mph 1019.7mb 75f 65f
3:50am 1.6ft 10s 4s 11 13 mph 1019.6mb 75f 65f
3:20am  -   -   -  9 11 mph 1019.5mb 75f 65f
2:50am 1.6ft 11s 5s 9 11 mph 1019.7mb 75f 66f
2:20am  -   -   -  7 9 mph 1019.8mb 76f 66f
1:50am 1.6ft 11s 5s 9 11 mph 1020.2mb 76f 66f
1:20am  -   -   -  9 11 mph 1020.3mb 76f 67f
12:50am 1.6ft 6s 5s 9 11 mph 1020.6mb 76f 68f
12:20am  -   -   -  7 9 mph 1020.7mb 76f 69f
Wed 12/17 11:50pm 1.6ft 9s 5s 7 9 mph 1020.9mb 76f 69f
11:20pm  -   -   -  9 13 mph 1021.3mb 76f 69f
10:50pm 1.6ft 11s 5s 4 9 mph 1021.4mb 76f 69f
10:20pm  -   -   -  7 9 mph 1021.3mb 76f 69f
9:50pm 1.6ft 11s 5s 4 7 mph 1020.9mb 76f 69f
9:20pm  -   -   -  2 4 mph 1020.3mb 76f 69f
8:50pm 1.6ft 10s 5s 4 7 mph 1020.5mb 76f 69f
8:20pm  -   -   -  4 7 mph 1020.5mb 76f 69f
7:50pm 1.6ft 11s 6s 4 7 mph 1020.7mb 76f 69f
7:20pm  -   -   -  4 7 mph 1020.3mb 76f 69f
6:50pm 1.6ft 11s 5s 4 7 mph 1019.8mb 76f 69f
6:20pm  -   -   -  7 9 mph 1019.8mb 76f 68f
5:50pm 1.6ft 10s 5s 7 9 mph 1019.9mb 76f 68f
5:20pm  -   -   -  4 7 mph 1019.9mb 76f 68f
4:50pm 1.6ft 10s 5s 4 7 mph 1019.5mb 76f 68f
4:20pm  -   -   -  2 4 mph 1019.3mb 76f 68f
3:50pm 1.6ft 9s 5s 4 7 mph 1019.1mb 76f 67f
3:20pm  -   -   -  4 7 mph 1019.2mb 76f 67f
2:50pm 1.6ft 10s 5s 4 7 mph 1019.3mb 76f 67f
2:20pm  -   -   -  7 11 mph 1019.7mb 76f 66f
1:50pm 1.6ft 11s 4s 9 13 mph 1020.1mb 76f 65f
1:20pm  -   -   -  11 13 mph 1020.4mb 76f 65f
12:50pm 2ft 11s 5s 11 13 mph 1020.9mb 76f 66f
12:20pm  -   -   -  9 11 mph 1021.4mb 76f 66f
11:50am 2ft 11s 4s 11 13 mph 1021.9mb 76f 66f
11:20am  -   -   -  9 13 mph 1022.4mb 75f 66f
10:50am 2ft 4s 4s 11 13 mph 1022.8mb 75f 65f
10:20am  -   -   -  9 11 mph 1022.7mb 75f 64f
9:50am 2ft 11s 4s 9 13 mph 1022.7mb 75f 64f
9:20am  -   -   -  13 16 mph 1022.4mb 75f 64f
8:50am 2ft 11s 4s 13 16 mph 1021.9mb 75f 64f
8:20am  -   -   -  11 16 mph 1021.7mb 75f 65f
7:50am 2.5ft 11s 4s 11 13 mph 1021.3mb 75f 65f
7:20am  -   -   -  13 16 mph 1021.2mb 76f 65f
6:50am 2.5ft 11s 4s 13 16 mph 1021mb 76f 65f
6:20am  -   -   -  16 18 mph 1021mb 76f 65f
5:50am 2ft 11s 4s 18 20 mph 1020.8mb 76f 65f
5:20am  -   -   -  20 25 mph 1020.6mb 76f 66f
4:50am 2ft 11s 4s 18 22 mph 1020.4mb 76f 66f
4:20am  -   -   -  16 20 mph 1020.4mb 76f 66f
3:50am 2ft 11s 4s 18 20 mph 1020.3mb 76f 66f
3:20am  -   -   -  18 20 mph 1020.4mb 76f 66f
2:50am 2ft 12s 4s 18 20 mph 1020.4mb 76f 67f
2:20am  -   -   -  18 20 mph 1020.5mb 76f 67f
1:50am 2ft 11s 4s 18 20 mph 1020.6mb 76f 67f
1:20am  -   -   -  16 18 mph 1020.7mb 76f 67f
12:20am  -   -   -  16 18 mph 1021.1mb 76f 68f
Tue 12/16 11:50pm 2ft 11s 4s 16 20 mph 1021.3mb 76f 68f
11:20pm  -   -   -  18 20 mph 1021.6mb 76f 69f
10:50pm 2ft 11s 5s 16 20 mph 1021.7mb 76f 69f
10:20pm  -   -   -  16 18 mph 1021.8mb 76f 71f
9:50pm 1.6ft 11s 4s 16 18 mph 1021.6mb 76f 71f
9:20pm  -   -   -  16 18 mph 1021.4mb 76f 71f
8:50pm 2ft 11s 4s 16 18 mph 1021.3mb 76f 71f
8:20pm  -   -   -  16 18 mph 1021.2mb 76f 71f
7:50pm 2ft 9s 5s 16 18 mph 1021.1mb 76f 71f
7:20pm  -   -   -  16 18 mph 1021.2mb 76f 71f
6:50pm 2ft 11s 5s 16
mph
1021.2mb 76f 72f
6:20pm  -   -   -  16 18 mph 1021mb 76f 72f
5:50pm 1.6ft 11s 5s 16 18 mph 1020.7mb 76f 72f
5:20pm  -   -   -  16 18 mph 1020.3mb 77f 72f
4:50pm 2ft 11s 7s 13 16 mph 1019.7mb 77f 72f
4:20pm  -   -   -  11 16 mph 1019.8mb 77f 71f
3:50pm 2ft 11s 7s 11 16 mph 1020mb 77f 70f
3:20pm  -   -   -  11 13 mph 1020.1mb 77f 69f
2:50pm 2ft 11s 6s 11 13 mph 1020.1mb 77f 69f
2:20pm  -   -   -  11 13 mph 1020.4mb 77f 68f
1:50pm 2ft 11s 6s 11 13 mph 1020.6mb 77f 67f
1:20pm  -   -   -  11 13 mph 1020.9mb 77f 67f
12:50pm 2ft 11s 6s 9 11 mph 1021.3mb 77f 67f
12:20pm  -   -   -  9 13 mph 1021.9mb 77f 66f
11:50am 2ft 11s 6s 11 13 mph 1022.3mb 77f 66f
11:20am  -   -   -  9 11 mph 1022.6mb 77f 66f
10:50am 2ft 11s 6s 11 13 mph 1022.9mb 77f 66f
10:20am  -   -   -  11 13 mph 1023.1mb 77f 66f
9:50am 2ft 11s 5s 11 13 mph 1023mb 77f 66f
9:20am  -   -   -  11 13 mph 1022.8mb 77f 66f
8:50am 2.5ft 11s 5s 11 13 mph 1022.6mb 77f 65f
8:20am  -   -   -  11 13 mph 1022.3mb 77f 65f
7:50am 2.5ft 11s 5s 11 13 mph 1022.1mb 77f 64f
7:20am  -   -   -  13 16 mph 1021.9mb 77f 64f
6:50am 2.5ft 11s 7s 13 16 mph 1021.6mb 77f 65f
6:20am  -   -   -  11 13 mph 1021.2mb 77f 65f
5:50am 2ft 11s 9s 9 11 mph 1021mb 77f 66f
5:20am  -   -   -  7 11 mph 1020.6mb 77f 68f
4:50am 2.5ft 12s 8s 7 9 mph 1020.5mb 77f 67f
4:20am  -   -   -  7 11 mph 1020.4mb 77f 68f
3:50am 2ft 12s 8s 7 9 mph 1020.4mb 77f 68f
3:20am  -   -   -  7 9 mph 1020.2mb 77f 68f
2:50am 2.5ft 12s 8s 7
mph
1020.2mb 76f 68f
2:20am  -   -   -  4 7 mph 1020.2mb 76f 69f
1:50am 2ft 11s 8s 4 7 mph 1020.4mb 76f 69f
1:20am  -   -   -  4 7 mph 1020.4mb 76f 69f
12:50am 2.5ft 11s 8s 4 7 mph 1020.4mb 76f 69f
12:20am  -   -   -  4 7 mph 1020.6mb 76f 69f
Mon 12/15 11:50pm 2.5ft 12s 8s 2 4 mph 1020.5mb 76f 69f
11:20pm  -   -   -   -  2 mph 1020.6mb 76f 69f
10:50pm 2.5ft 12s 8s  -  2 mph 1020.9mb 76f 69f
10:20pm  -   -   -   -  2 mph 1021.1mb 76f 69f
9:50pm 2ft 9s 7s  -  2 mph 1021mb 76f 68f
9:20pm  -   -   -   -  2 mph 1020.9mb 76f 68f
8:50pm 2.5ft 11s 7s  -  2 mph 1020.8mb 76f 68f
8:20pm  -   -   -   -  2 mph 1020.7mb 76f 68f
7:50pm 2.5ft 12s 7s  -  2 mph 1020.5mb 75f 68f
7:20pm  -   -   -   -  mph 1020.3mb 75f 68f
6:50pm 2.5ft 11s 8s  -  2 mph 1020.1mb 75f 68f
6:20pm  -   -   -   -  2 mph 1019.8mb 75f 67f
5:50pm 2.5ft 11s 7s  -  2 mph 1019.5mb 75f 67f
5:20pm  -   -   -  2 7 mph 1019.2mb 75f 68f